Data for 10/10/2010

Time Sea-Level Adjusted Pressure Absolute Pressure Temperature Relative Humidity Dew Point   
(mb) (inHg) (mb) (inHg) (C) (F) (%) (C) (F)
00:05 1026 30.3 855 25.25 10 50 59 2.4 36.4
00:10 1026 30.3 855 25.25 10 50 59 2.3 36.1
00:15 1026 30.3 855 25.25 10 50 59 2.4 36.3
00:20 1026 30.3 855 25.25 9.6 49.3 62 2.8 37
00:25 1026 30.3 855 25.25 9 48.2 63 2.5 36.4
00:30 1026 30.3 855 25.25 9.1 48.5 63 2.6 36.7
00:35 1026 30.3 855 25.25 8.9 48 65 2.6 36.7
00:40 1026 30.3 855 25.25 8.5 47.3 65 2.4 36.4
00:45 1026 30.3 855 25.25 8.5 47.3 66 2.4 36.4
00:50 1026 30.3 855 25.25 8.1 46.7 67 2.4 36.4
00:55 1026 30.3 855 25.25 8 46.4 67 2.3 36.1
01:00 1026 30.3 855 25.25 7.9 46.3 68 2.4 36.3
01:05 1026 30.3 855 25.25 7.7 45.8 69 2.3 36.1
01:10 1026 30.3 855 25.25 7.8 46.1 67 2.2 36
01:15 1026 30.3 855 25.25 7.9 46.3 67 2.3 36.1
01:20 1026 30.3 855 25.25 8.1 46.6 67 2.3 36.1
01:25 1026 30.3 855 25.25 8.4 47.1 65 2.2 35.9
01:30 1026 30.3 855 25.25 8.5 47.4 65 2.4 36.3
01:35 1026 30.3 855 25.25 8.6 47.5 65 2.5 36.5
01:40 1026 30.3 855 25.25 7.7 45.8 71 2.8 37
01:45 1026 30.3 855 25.25 6.9 44.5 72 2.3 36.1
01:50 1026 30.3 855 25.25 7.1 44.8 70 2.1 35.7
01:55 1026 30.3 855 25.25 7.5 45.5 70 2.3 36.1
02:00 1026 30.3 855 25.25 7.4 45.2 70 2.4 36.2
02:05 1026 30.3 855 25.25 7.1 44.8 72 2.4 36.3
02:10 1026 30.3 855 25.25 7 44.5 72 2.3 36.1
02:15 1026 30.3 855 25.25 6.7 44 74 2.4 36.3
02:20 1026 30.3 855 25.25 6.5 43.6 74 2.2 35.9
02:25 1026 30.3 855 25.25 6.6 43.9 73 2.2 36
02:30 1026 30.3 855 25.25 6.9 44.3 72 2.1 35.9
02:35 1026 30.3 855 25.25 7 44.5 72 2.3 36.2
02:40 1026 30.3 855 25.25 6.8 44.3 73 2.3 36.1
02:45 1026 30.3 855 25.25 6.9 44.5 71 2.1 35.7
02:50 1026 30.3 855 25.25 7.1 44.9 70 2.1 35.8
02:55 1026 30.3 855 25.25 7.2 44.9 71 2.3 36.1
03:00 1026 30.3 855 25.25 7 44.5 73 2.4 36.3
03:05 1026 30.3 855 25.25 6.5 43.6 74 2.2 36
03:10 1026 30.3 855 25.25 6.3 43.4 75 2.2 35.9
03:15 1026 30.3 855 25.25 6.7 44.1 71 1.9 35.4
03:20 1026 30.3 855 25.25 7.5 45.5 69 2.1 35.9
03:25 1026 30.3 855 25.25 7.7 45.8 68 2.2 36
03:30 1026 30.3 855 25.25 7.8 46.1 68 2.2 36
03:35 1026 30.3 855 25.25 8 46.3 67 2.1 35.8
03:40 1026 30.3 855 25.25 8 46.5 67 2.4 36.2
03:45 1026 30.3 855 25.25 7.9 46.2 67 2.1 35.9
03:50 1026 30.3 855 25.25 7.9 46.1 67 2.2 36
03:55 1026 30.3 855 25.25 7.9 46.2 67 2.2 36
04:00 1026 30.3 855 25.25 7.9 46.2 67 2.2 36
04:05 1026 30.3 855 25.25 7.9 46.3 66 2.1 35.8
04:10 1026 30.3 855 25.25 7.9 46.3 67 2.3 36.1
04:15 1026 30.3 855 25.25 7.7 45.9 68 2.2 36
04:20 1026 30.3 855 25.25 7.6 45.7 68 2.1 35.8
04:25 1026 30.3 855 25.25 7.5 45.4 70 2.3 36.2
04:30 1026 30.3 855 25.25 7.2 44.9 70 2 35.7
04:35 1026 30.3 855 25.25 7.2 45 69 2.1 35.7
04:40 1026 30.3 855 25.25 7.6 45.7 68 2 35.6
04:45 1026 30.3 855 25.25 7.8 46 68 2.3 36.1
04:50 1025 30.27 855 25.25 8.1 46.6 66 2.2 36
04:55 1025 30.27 855 25.25 8.3 47 66 2.5 36.4
05:00 1025 30.27 855 25.25 8.4 47.1 66 2.4 36.3
05:05 1025 30.27 855 25.25 8.4 47.2 66 2.5 36.6
05:10 1025 30.27 855 25.25 8.5 47.2 66 2.6 36.6
05:15 1025 30.27 855 25.25 8.5 47.2 67 2.6 36.8
05:20 1025 30.27 855 25.25 8.5 47.3 66 2.6 36.6
05:25 1025 30.27 855 25.25 8.7 47.6 64 2.3 36.1
05:30 1025 30.27 855 25.25 8.9 48 64 2.6 36.7
05:35 1025 30.27 855 25.25 8.9 47.9 66 2.9 37.2
05:40 1025 30.27 855 25.25 8.6 47.5 67 2.8 37.1
05:45 1025 30.27 855 25.25 8.4 47.2 67 2.8 37
05:50 1025 30.27 855 25.25 8.4 47.2 69 3 37.5
05:55 1025 30.27 855 25.25 8.3 47 70 3.2 37.8
06:00 1025 30.27 855 25.25 8.2 46.7 70 3.1 37.5
06:05 1025 30.27 855 25.25 8.3 46.9 71 3.2 37.8
06:10 1025 30.27 855 25.25 8.2 46.8 71 3.3 38
06:15 1025 30.27 854 25.22 8.1 46.6 71 3.2 37.8
06:20 1025 30.27 854 25.22 8.1 46.6 71 3.2 37.8
06:25 1025 30.27 854 25.22 8.2 46.7 71 3.3 38
06:30 1025 30.27 854 25.22 8.2 46.7 69 2.8 37.1
06:35 1025 30.27 854 25.22 8.4 47.1 69 3.1 37.6
06:40 1025 30.27 854 25.22 8.4 47.2 69 3 37.5
06:45 1025 30.27 854 25.22 8.5 47.3 69 3.2 37.7
06:50 1025 30.27 854 25.22 8.5 47.2 70 3.4 38.1
06:55 1025 30.27 854 25.22 8.5 47.2 71 3.5 38.3
07:00 1025 30.27 854 25.22 8.4 47 72 3.6 38.5
07:05 1025 30.27 854 25.22 8.1 46.6 72 3.5 38.2
07:10 1025 30.27 854 25.22 8.1 46.5 71 3.1 37.6
07:15 1025 30.27 854 25.22 8.2 46.7 72 3.5 38.2
07:20 1025 30.27 854 25.22 8 46.5 71 3.1 37.6
07:25 1025 30.27 854 25.22 8.3 46.9 68 2.8 37
07:30 1025 30.27 854 25.22 8.4 47.2 69 3.1 37.7
07:35 1025 30.27 854 25.22 8.3 46.9 69 2.9 37.2
07:40 1025 30.27 854 25.22 8.4 47.1 69 3 37.4
07:45 1025 30.27 854 25.22 8.4 47.2 68 2.8 37.1
07:50 1025 30.27 854 25.22 8.6 47.4 68 3 37.4
07:55 1025 30.27 854 25.22 8.6 47.4 67 2.9 37.2
08:00 1025 30.27 854 25.22 8.7 47.6 67 3 37.3
08:05 1025 30.27 854 25.22 8.8 47.8 67 3 37.4
08:10 1025 30.27 854 25.22 8.8 47.9 67 3.1 37.5
08:15 1025 30.27 854 25.22 9 48.1 65 2.8 37
08:20 1025 30.27 854 25.22 9.2 48.6 65 3 37.3
08:25 1025 30.27 854 25.22 9.3 48.8 64 3 37.4
08:30 1025 30.27 854 25.22 9.3 48.8 65 3.1 37.5
08:35 1025 30.27 854 25.22 9.3 48.7 67 3.5 38.3
08:40 1025 30.27 854 25.22 9.3 48.7 66 3.4 38.1
08:45 1025 30.27 854 25.22 9.3 48.7 67 3.6 38.5
08:50 1025 30.27 854 25.22 9.3 48.8 67 3.5 38.2
08:55 1025 30.27 854 25.22 9.4 48.8 67 3.6 38.4
09:00 1025 30.27 854 25.22 9.4 48.9 67 3.7 38.6
09:05 1025 30.27 854 25.22 9.5 49.1 66 3.4 38.2
09:10 1025 30.27 854 25.22 9.5 49.2 68 4 39.2
09:15 1025 30.27 854 25.22 9.5 49.1 69 4.1 39.5
09:20 1025 30.27 854 25.22 9.5 49.2 68 4 39.1
09:25 1025 30.27 854 25.22 9.7 49.4 67 3.9 39.1
09:30 1025 30.27 854 25.22 9.9 49.7 65 3.6 38.5
09:35 1025 30.27 854 25.22 10 50 64 3.6 38.6
09:40 1025 30.27 854 25.22 10.1 50.2 65 3.9 39.1
09:45 1024 30.24 854 25.22 10.2 50.4 65 3.9 39.1
09:50 1024 30.24 854 25.22 10.4 50.7 63 3.6 38.5
09:55 1024 30.24 854 25.22 10.6 51 61 3.4 38.1
10:00 1024 30.24 854 25.22 10.9 51.6 61 3.6 38.5
10:05 1024 30.24 854 25.22 11.1 51.9 60 3.6 38.5
10:10 1024 30.24 854 25.22 11.3 52.4 59 3.6 38.4
10:15 1024 30.24 854 25.22 11.6 52.9 56 3.2 37.8
10:20 1024 30.24 854 25.22 11.9 53.4 58 3.8 38.9
10:25 1024 30.24 854 25.22 11.9 53.4 57 3.7 38.7
10:30 1024 30.24 854 25.22 12.1 53.7 56 3.6 38.4
10:35 1024 30.24 854 25.22 12.3 54.2 56 3.9 39
10:40 1024 30.24 854 25.22 12.4 54.3 55 3.7 38.6
10:45 1024 30.24 854 25.22 12.4 54.4 55 3.7 38.6
10:50 1024 30.24 854 25.22 12.4 54.3 56 3.9 39
10:55 1024 30.24 854 25.22 12.4 54.2 56 4 39.2
11:00 1024 30.24 854 25.22 12.4 54.3 56 4 39.3
11:05 1024 30.24 854 25.22 12.4 54.3 57 4 39.3
11:10 1024 30.24 854 25.22 12.5 54.5 58 4.6 40.3
11:15 1024 30.24 854 25.22 12.6 54.6 59 4.9 40.8
11:20 1024 30.24 853 25.19 12.7 54.8 58 4.6 40.3
11:25 1024 30.24 853 25.19 13 55.3 57 4.8 40.6
11:30 1024 30.24 853 25.19 13.1 55.6 57 4.9 40.8
11:35 1024 30.24 853 25.19 13.1 55.6 56 4.7 40.4
11:40 1024 30.24 853 25.19 13.2 55.8 56 4.8 40.6
11:45 1024 30.24 853 25.19 13.5 56.3 56 4.9 40.8
11:50 1024 30.24 853 25.19 13.6 56.5 54 4.5 40.1
11:55 1024 30.24 853 25.19 13.9 57.1 52 4.4 39.9
12:00 1024 30.24 853 25.19 14.4 57.8 52 4.7 40.4
12:05 1024 30.24 853 25.19 14.6 58.2 50 4.2 39.6
12:10 1024 30.24 853 25.19 14.9 58.8 49 4.4 40
12:15 1024 30.24 853 25.19 15 59 49 4.6 40.3
12:20 1024 30.24 853 25.19 14.9 58.8 49 4.4 39.9
12:25 1024 30.24 853 25.19 15 59 48 4.3 39.7
12:30 1024 30.24 853 25.19 15 59.1 49 4.5 40
12:35 1024 30.24 853 25.19 15.2 59.3 48 4.3 39.8
12:40 1024 30.24 853 25.19 15.3 59.5 49 4.7 40.4
12:45 1024 30.24 853 25.19 15.3 59.5 48 4.5 40.1
12:50 1024 30.24 853 25.19 15.4 59.7 46 3.9 39.1
12:55 1024 30.24 853 25.19 15.7 60.2 46 4.3 39.8
13:00 1024 30.24 853 25.19 15.5 59.9 48 4.5 40.1
13:05 1023 30.21 853 25.19 15.7 60.3 46 4.3 39.7
13:10 1023 30.21 853 25.19 16 60.8 45 4 39.3
13:15 1023 30.21 853 25.19 16.3 61.4 44 4.2 39.6
13:20 1023 30.21 853 25.19 16.5 61.7 44 4.2 39.6
13:25 1023 30.21 852 25.16 16.2 61.2 45 4.2 39.6
13:30 1023 30.21 852 25.16 16.1 60.9 45 4.2 39.5
13:35 1023 30.21 852 25.16 15.8 60.5 45 4 39.1
13:40 1023 30.21 852 25.16 15.7 60.2 46 4.2 39.5
13:45 1023 30.21 852 25.16 15.9 60.7 45 4.2 39.6
13:50 1023 30.21 852 25.16 16.1 60.9 45 4.1 39.4
13:55 1023 30.21 852 25.16 16.3 61.4 44 4.1 39.4
14:00 1023 30.21 852 25.16 16.6 61.9 44 4.4 39.9
14:05 1023 30.21 852 25.16 16.2 61.2 45 4.3 39.7
14:10 1023 30.21 852 25.16 16.2 61.1 46 4.7 40.4
14:15 1022 30.18 852 25.16 16.5 61.7 44 4.3 39.7
14:20 1022 30.18 852 25.16 16.5 61.7 45 4.8 40.6
14:25 1022 30.18 852 25.16 16.7 62 45 4.8 40.6
14:30 1022 30.18 851 25.13 16.6 61.8 44 4.4 40
14:35 1022 30.18 851 25.13 17.1 62.9 44 4.8 40.7
14:40 1022 30.18 851 25.13 17.2 62.9 45 5.1 41.3
14:45 1022 30.18 851 25.13 17.1 62.7 43 4.6 40.2
14:50 1022 30.18 851 25.13 17.5 63.5 43 4.7 40.5
14:55 1022 30.18 851 25.13 17.7 63.8 43 5 41.1
15:00 1022 30.18 851 25.13 17.4 63.4 43 5 41
15:05 1022 30.18 851 25.13 17.1 62.8 45 5.2 41.4
15:10 1022 30.18 851 25.13 17 62.7 45 5.2 41.3
15:15 1022 30.18 851 25.13 17.3 63.1 44 4.9 40.8
15:20 1022 30.18 851 25.13 17.4 63.3 44 5 41
15:25 1022 30.18 851 25.13 17.3 63.2 45 5.3 41.5
15:30 1022 30.18 851 25.13 17.3 63.1 45 5.3 41.6
15:35 1022 30.18 851 25.13 17.5 63.4 44 5.1 41.2
15:40 1022 30.18 851 25.13 17.6 63.6 44 5.2 41.4
15:45 1021 30.15 851 25.13 17.6 63.6 44 5.3 41.5
15:50 1021 30.15 851 25.13 17.8 64 43 5.1 41.1
15:55 1021 30.15 850 25.1 17.5 63.5 45 5.7 42.2
16:00 1021 30.15 851 25.13 17.4 63.3 45 5.4 41.7
16:05 1021 30.15 850 25.1 17.4 63.3 45 5.4 41.7
16:10 1021 30.15 850 25.1 17.3 63.1 45 5.4 41.8
16:15 1021 30.15 850 25.1 17.3 63.1 45 5.3 41.6
16:20 1021 30.15 850 25.1 17.3 63.2 47 6 42.9
16:25 1021 30.15 850 25.1 17.4 63.3 46 5.8 42.5
16:30 1021 30.15 850 25.1 17.4 63.3 45 5.4 41.7
16:35 1021 30.15 850 25.1 17.4 63.3 45 5.4 41.7
16:40 1021 30.15 850 25.1 17.4 63.3 45 5.5 42
16:45 1021 30.15 850 25.1 17.4 63.4 45 5.4 41.6
16:50 1021 30.15 850 25.1 17.6 63.6 45 5.5 41.8
16:55 1021 30.15 850 25.1 17.7 63.8 45 5.8 42.4
17:00 1021 30.15 850 25.1 17.6 63.6 45 5.6 42.1
17:05 1021 30.15 850 25.1 17.7 63.8 46 5.9 42.6
17:10 1021 30.15 850 25.1 17.8 64.1 45 5.7 42.3
17:15 1021 30.15 850 25.1 17.7 63.9 44 5.5 42
17:20 1021 30.15 850 25.1 17.6 63.7 45 5.7 42.3
17:25 1021 30.15 850 25.1 17.6 63.7 45 5.7 42.2
17:30 1021 30.15 850 25.1 17.6 63.7 45 5.7 42.3
17:35 1021 30.15 850 25.1 17.5 63.6 46 5.8 42.4
17:40 1021 30.15 850 25.1 17.4 63.3 46 5.7 42.3
17:45 1021 30.15 850 25.1 17.4 63.3 46 5.8 42.4
17:50 1021 30.15 850 25.1 17.3 63.2 47 5.9 42.5
17:55 1021 30.15 850 25.1 17.1 62.8 52 7.2 44.9
18:00 1021 30.15 850 25.1 17.1 62.8 52 7.2 44.9
18:05 1020 30.12 850 25.1 17 62.6 49 6.4 43.5
18:10 1020 30.12 850 25.1 16.9 62.5 49 6.2 43.1
18:15 1020 30.12 850 25.1 16.9 62.3 50 6.5 43.7
18:20 1020 30.12 849 25.07 16.8 62.2 49 6 42.9
18:25 1020 30.12 849 25.07 16.7 62.1 49 6.2 43.2
18:30 1020 30.12 849 25.07 16.6 61.9 50 6.4 43.5
18:35 1020 30.12 849 25.07 16.6 61.8 50 6.2 43.2
18:40 1020 30.12 849 25.07 16.5 61.6 53 6.8 44.3
18:45 1020 30.12 849 25.07 16.5 61.7 56 7.9 46.2
18:50 1020 30.12 849 25.07 16.4 61.6 55 7.4 45.4
18:55 1020 30.12 849 25.07 16.3 61.4 56 7.5 45.6
19:00 1020 30.12 849 25.07 16.4 61.5 56 7.7 45.8
19:05 1020 30.12 849 25.07 16.2 61.1 57 7.8 46.1
19:10 1020 30.12 849 25.07 16 60.8 58 7.8 46
19:15 1020 30.12 849 25.07 15.9 60.7 57 7.6 45.7
19:20 1020 30.12 849 25.07 16 60.9 57 7.5 45.5
19:25 1020 30.12 849 25.07 16 60.9 60 8.3 47
19:30 1020 30.12 849 25.07 16 60.8 57 7.5 45.5
19:35 1020 30.12 849 25.07 16 60.8 58 7.9 46.2
19:40 1020 30.12 849 25.07 15.8 60.4 61 8.4 47.1
19:45 1020 30.12 849 25.07 15.5 59.9 62 8.2 46.8
19:50 1020 30.12 849 25.07 15.3 59.6 62 8.2 46.7
19:55 1020 30.12 849 25.07 15.3 59.5 62 8.1 46.6
20:00 1020 30.12 849 25.07 15.3 59.5 65 8.7 47.7
20:05 1020 30.12 849 25.07 15.3 59.5 66 8.9 48.1
20:10 1020 30.12 849 25.07 15.1 59.2 63 8.3 46.9
20:15 1020 30.12 849 25.07 15 59 65 8.5 47.3
20:20 1020 30.12 849 25.07 15 59 66 8.7 47.7
20:25 1020 30.12 849 25.07 15.1 59.1 65 8.6 47.5
20:30 1020 30.12 849 25.07 15 59 63 8.2 46.7
20:35 1020 30.12 849 25.07 14.7 58.5 64 8.1 46.7
20:40 1020 30.12 849 25.07 14.7 58.4 62 7.6 45.7
20:45 1020 30.12 849 25.07 14.8 58.6 61 7.4 45.4
20:50 1020 30.12 849 25.07 14.9 58.7 62 7.7 45.8
20:55 1020 30.12 849 25.07 14.7 58.5 62 7.5 45.5
21:00 1020 30.12 849 25.07 14.6 58.2 62 7.4 45.3
21:05 1020 30.12 849 25.07 14.5 58.2 62 7.5 45.4
21:10 1020 30.12 849 25.07 14.6 58.3 61 7.3 45.1
21:15 1020 30.12 849 25.07 14.5 58.1 63 7.5 45.6
21:20 1020 30.12 849 25.07 14.3 57.8 62 7.3 45.1
21:25 1020 30.12 849 25.07 14.4 57.8 61 7 44.7
21:30 1020 30.12 849 25.07 14.5 58.1 60 7 44.6
21:35 1020 30.12 849 25.07 14.5 58.1 62 7.4 45.2
21:40 1020 30.12 849 25.07 14.2 57.5 62 7.1 44.7
21:45 1020 30.12 849 25.07 14.1 57.3 63 7.2 45
21:50 1020 30.12 849 25.07 13.9 57.1 64 7.2 45
21:55 1020 30.12 849 25.07 13.8 56.8 64 7 44.7
22:00 1020 30.12 849 25.07 13.8 56.8 63 7 44.5
22:05 1020 30.12 849 25.07 13.7 56.7 63 6.9 44.5
22:10 1020 30.12 849 25.07 13.6 56.5 64 6.9 44.4
22:15 1020 30.12 849 25.07 13.4 56.2 65 7 44.6
22:20 1020 30.12 849 25.07 13.2 55.8 65 6.9 44.4
22:25 1020 30.12 849 25.07 13.1 55.6 65 6.8 44.2
22:30 1020 30.12 849 25.07 13.2 55.8 66 6.9 44.5
22:35 1019 30.09 849 25.07 13 55.3 66 6.9 44.4
22:40 1019 30.09 849 25.07 12.8 55 66 6.7 44
22:45 1019 30.09 849 25.07 12.8 55 65 6.5 43.7
22:50 1019 30.09 849 25.07 12.7 54.9 66 6.5 43.7
22:55 1019 30.09 849 25.07 12.6 54.7 67 6.6 43.9
23:00 1019 30.09 849 25.07 12.4 54.4 68 6.7 44
23:05 1019 30.09 849 25.07 12.4 54.2 66 6.3 43.4
23:10 1019 30.09 849 25.07 12.7 54.8 66 6.6 43.9
23:15 1019 30.09 849 25.07 13 55.3 65 6.5 43.7
23:20 1019 30.09 849 25.07 13 55.4 65 6.6 44
23:25 1019 30.09 849 25.07 12.9 55.1 66 6.7 44.1
23:30 1019 30.09 849 25.07 12.6 54.8 67 6.7 44
23:35 1019 30.09 849 25.07 12.5 54.5 67 6.5 43.7
23:40 1019 30.09 849 25.07 12.5 54.5 66 6.5 43.7
23:45 1019 30.09 849 25.07 12.6 54.8 66 6.4 43.5
23:50 1019 30.09 849 25.07 12.7 54.8 66 6.5 43.7
23:55 1019 30.09 849 25.07 12.4 54.3 68 6.7 44
24:00 1019 30.09 849 25.07 11.9 53.4 70 6.7 44.1